createdAt,value
2022-12-01T00:01:26.485Z,21.02
2022-12-01T00:03:54.350Z,19.15
2022-12-01T00:06:24.617Z,22.70
2022-12-01T00:09:13.986Z,16.38
2022-12-01T00:11:42.942Z,20.88
2022-12-01T00:14:10.466Z,23.98
2022-12-01T00:16:44.820Z,18.48
2022-12-01T00:19:13.444Z,15.98
2022-12-01T00:21:40.399Z,15.80
2022-12-01T00:24:10.708Z,18.42
2022-12-01T00:26:38.595Z,17.33
2022-12-01T00:29:05.917Z,13.85
2022-12-01T00:31:33.308Z,15.75
2022-12-01T00:34:00.544Z,17.90
2022-12-01T00:36:27.781Z,21.10
2022-12-01T00:38:57.081Z,18.02
2022-12-01T00:41:25.842Z,19.75
2022-12-01T00:43:53.327Z,20.42
2022-12-01T00:46:20.751Z,18.25
2022-12-01T00:48:48.459Z,17.00
2022-12-01T00:51:15.767Z,18.85
2022-12-01T00:53:46.447Z,13.18
2022-12-01T00:56:13.664Z,15.85
2022-12-01T00:58:40.950Z,16.77
2022-12-01T01:01:08.222Z,17.08
2022-12-01T01:03:35.515Z,17.85
2022-12-01T01:06:09.536Z,17.27
2022-12-01T01:08:40.320Z,19.50
2022-12-01T01:11:09.164Z,24.30
2022-12-01T01:13:37.151Z,16.23
2022-12-01T01:16:08.660Z,16.02
2022-12-01T01:18:35.899Z,16.60
2022-12-01T01:21:06.885Z,19.55
2022-12-01T01:23:37.354Z,20.45
2022-12-01T01:26:11.133Z,20.35
2022-12-01T01:28:38.774Z,16.08
2022-12-01T01:31:07.354Z,18.77
2022-12-01T01:33:34.627Z,18.05
2022-12-01T01:36:02.958Z,16.90
2022-12-01T01:38:30.488Z,16.80
2022-12-01T01:41:02.416Z,16.13
2022-12-01T01:43:48.107Z,17.83
2022-12-01T01:46:21.939Z,15.93
2022-12-01T01:49:04.998Z,16.95
2022-12-01T01:51:43.360Z,16.77
2022-12-01T01:54:17.867Z,16.83
2022-12-01T01:56:46.566Z,19.05
2022-12-01T01:59:16.787Z,22.63
2022-12-01T02:01:44.346Z,18.88
2022-12-01T02:04:12.872Z,20.55
2022-12-01T02:06:39.929Z,15.13
2022-12-01T02:09:07.133Z,17.20
2022-12-01T02:12:03.672Z,16.58
2022-12-01T02:14:42.754Z,16.17
2022-12-01T02:17:50.438Z,17.65
2022-12-01T02:20:29.375Z,16.10
2022-12-01T02:23:25.898Z,20.98
2022-12-01T02:26:24.094Z,20.38
2022-12-01T02:29:00.206Z,24.63
2022-12-01T02:32:15.745Z,21.27
2022-12-01T02:34:57.406Z,23.85
2022-12-01T02:37:47.614Z,23.10
2022-12-01T02:40:39.746Z,24.98
2022-12-01T02:43:09.934Z,23.80
2022-12-01T02:45:37.936Z,23.85
2022-12-01T02:48:11.369Z,22.20
2022-12-01T02:50:40.743Z,26.33
2022-12-01T02:53:12.969Z,29.10
2022-12-01T02:58:16.223Z,29.67
2022-12-01T03:01:10.775Z,23.23
2022-12-01T03:03:56.193Z,25.73
2022-12-01T03:06:36.700Z,24.20
2022-12-01T03:09:09.614Z,23.52
2022-12-01T03:12:13.038Z,23.27
2022-12-01T03:14:51.559Z,30.95
2022-12-01T03:17:25.481Z,33.97
2022-12-01T03:20:26.015Z,35.08
2022-12-01T03:23:00.563Z,30.63
2022-12-01T03:25:30.849Z,34.75
2022-12-01T03:28:20.579Z,32.45
2022-12-01T03:30:54.562Z,33.72
2022-12-01T03:33:28.427Z,30.15
2022-12-01T03:36:04.906Z,36.97
2022-12-01T03:38:36.251Z,26.67
2022-12-01T03:41:26.027Z,37.88
2022-12-01T03:43:59.955Z,35.80
2022-12-01T03:46:47.905Z,30.08
2022-12-01T03:49:18.180Z,27.50
2022-12-01T03:52:03.738Z,25.08
2022-12-01T03:54:52.439Z,27.63
2022-12-01T03:57:26.691Z,30.95
2022-12-01T03:59:54.775Z,39.80
2022-12-01T04:02:25.585Z,51.72
2022-12-01T04:04:52.834Z,45.63
2022-12-01T04:07:21.159Z,43.72
2022-12-01T04:09:48.760Z,35.50
2022-12-01T04:12:30.928Z,42.35
2022-12-01T04:14:59.230Z,107.53
2022-12-01T04:17:27.401Z,195.50
2022-12-01T04:19:57.045Z,217.88
2022-12-01T04:22:24.956Z,102.95
2022-12-01T04:24:52.408Z,63.50
2022-12-01T04:27:20.445Z,74.18
2022-12-01T04:29:48.163Z,43.85
2022-12-01T04:32:15.628Z,38.25
2022-12-01T04:34:42.996Z,90.40
2022-12-01T04:37:10.617Z,93.38
2022-12-01T04:39:38.452Z,124.82
2022-12-01T04:42:08.568Z,116.78
2022-12-01T04:44:36.683Z,55.75
2022-12-01T04:47:06.885Z,74.45
2022-12-01T04:49:35.345Z,71.75
2022-12-01T04:52:02.597Z,53.15
2022-12-01T04:54:30.747Z,105.95
2022-12-01T04:57:07.099Z,113.60
2022-12-01T04:59:34.867Z,36.47
2022-12-01T05:02:04.195Z,30.80
2022-12-01T05:04:32.727Z,32.17
2022-12-01T05:06:59.704Z,38.38
2022-12-01T05:09:27.228Z,33.08
2022-12-01T05:11:54.313Z,21.98
2022-12-01T05:14:21.375Z,25.95
2022-12-01T05:16:50.041Z,27.02
2022-12-01T05:19:39.161Z,23.75
2022-12-01T05:22:06.290Z,25.25
2022-12-01T05:24:33.666Z,25.17
2022-12-01T05:27:00.874Z,24.73
2022-12-01T05:29:27.848Z,24.83
2022-12-01T05:31:54.970Z,25.05
2022-12-01T05:34:22.383Z,25.67
2022-12-01T05:36:52.270Z,28.55
2022-12-01T05:39:19.343Z,29.05
2022-12-01T05:41:48.979Z,22.48
2022-12-01T05:44:16.326Z,27.55
2022-12-01T05:46:43.579Z,30.83
2022-12-01T05:49:10.794Z,26.20
2022-12-01T05:51:38.240Z,31.95
2022-12-01T05:54:06.776Z,24.05
2022-12-01T05:56:34.095Z,30.25
2022-12-01T05:59:04.303Z,23.17
2022-12-01T06:01:31.764Z,24.27
2022-12-01T06:03:59.086Z,25.42
2022-12-01T06:06:26.990Z,27.00
2022-12-01T06:08:54.151Z,24.00
2022-12-01T06:11:21.483Z,25.48
2022-12-01T06:13:48.511Z,29.08
2022-12-01T06:16:15.849Z,24.13
2022-12-01T06:18:52.021Z,32.72
2022-12-01T06:21:19.550Z,23.73
2022-12-01T06:23:46.747Z,26.08
2022-12-01T06:26:14.322Z,32.90
2022-12-01T06:28:42.543Z,44.20
2022-12-01T06:31:09.993Z,28.40
2022-12-01T06:33:37.070Z,28.25
2022-12-01T06:36:06.922Z,36.55
2022-12-01T06:38:35.745Z,29.90
2022-12-01T06:41:06.060Z,23.38
2022-12-01T06:43:35.665Z,41.20
2022-12-01T06:46:05.026Z,36.33
2022-12-01T06:48:32.759Z,26.48
2022-12-01T06:51:00.709Z,26.08
2022-12-01T06:53:29.901Z,28.02
2022-12-01T06:56:06.145Z,30.88
2022-12-01T06:58:34.788Z,27.23
2022-12-01T07:01:09.944Z,30.45
2022-12-01T07:03:37.289Z,28.98
2022-12-01T07:06:05.733Z,22.05
2022-12-01T07:08:33.463Z,29.33
2022-12-01T07:11:02.221Z,24.52
2022-12-01T07:13:33.783Z,32.10
2022-12-01T07:16:10.495Z,22.73
2022-12-01T07:18:39.036Z,25.65
2022-12-01T07:21:10.212Z,25.15
2022-12-01T07:23:55.837Z,26.70
2022-12-01T07:26:26.697Z,25.50
2022-12-01T07:28:56.696Z,32.35
2022-12-01T07:31:25.001Z,26.02
2022-12-01T07:33:56.409Z,28.73
2022-12-01T07:36:32.201Z,29.50
2022-12-01T07:39:22.567Z,29.90
2022-12-01T07:42:02.404Z,24.45
2022-12-01T07:44:33.141Z,27.25
2022-12-01T07:47:02.376Z,30.48
2022-12-01T07:49:38.911Z,25.40
2022-12-01T07:52:25.183Z,23.58
2022-12-01T07:54:55.173Z,21.92
2022-12-01T07:57:24.197Z,27.60
2022-12-01T07:59:53.953Z,22.52
2022-12-01T08:02:24.900Z,24.90
2022-12-01T08:04:59.453Z,23.15
2022-12-01T08:07:40.281Z,29.17
2022-12-01T08:10:16.153Z,24.58
2022-12-01T08:12:50.041Z,27.92
2022-12-01T08:15:50.282Z,25.05
2022-12-01T08:18:40.591Z,27.38
2022-12-01T08:21:10.958Z,25.58
2022-12-01T08:23:39.279Z,28.85
2022-12-01T08:28:58.087Z,25.58
2022-12-01T08:31:31.710Z,27.63
2022-12-01T08:34:10.462Z,21.60
2022-12-01T08:36:39.835Z,24.77
2022-12-01T08:39:23.572Z,28.95
2022-12-01T08:42:29.059Z,24.58
2022-12-01T08:45:02.612Z,25.75
2022-12-01T08:47:32.876Z,30.42
2022-12-01T08:50:02.153Z,24.73
2022-12-01T08:52:37.304Z,29.25
2022-12-01T08:55:09.274Z,29.10
2022-12-01T08:57:38.251Z,25.35
2022-12-01T09:00:06.369Z,25.55
2022-12-01T09:02:34.594Z,30.63
2022-12-01T09:05:03.007Z,31.27
2022-12-01T09:07:31.326Z,30.70
2022-12-01T09:09:58.927Z,23.75
2022-12-01T09:12:27.148Z,20.23
2022-12-01T09:14:57.649Z,27.80
2022-12-01T09:17:28.920Z,24.67
2022-12-01T09:19:59.700Z,32.42
2022-12-01T09:22:27.010Z,32.70
2022-12-01T09:24:58.827Z,28.98
2022-12-01T09:27:26.266Z,27.17
2022-12-01T09:29:58.512Z,26.67
2022-12-01T09:34:59.114Z,23.13
2022-12-01T09:37:26.714Z,28.92
2022-12-01T09:39:56.158Z,35.80
2022-12-01T09:42:32.352Z,30.58
2022-12-01T09:45:22.840Z,32.45
2022-12-01T09:47:50.878Z,28.33
2022-12-01T09:50:25.372Z,25.88
2022-12-01T09:53:09.530Z,29.48
2022-12-01T09:55:36.985Z,24.90
2022-12-01T09:58:06.353Z,25.63
2022-12-01T10:00:37.004Z,22.13
2022-12-01T10:07:57.443Z,25.60
2022-12-01T10:11:41.352Z,23.45
2022-12-01T10:14:20.878Z,21.80
2022-12-01T10:17:04.571Z,20.30
2022-12-01T10:20:05.553Z,23.58
2022-12-01T10:22:35.483Z,28.90
2022-12-01T10:25:35.101Z,25.42
2022-12-01T10:28:32.687Z,27.95
2022-12-01T10:31:11.542Z,18.35
2022-12-01T10:34:10.063Z,21.80
2022-12-01T10:36:41.523Z,21.95
2022-12-01T10:39:30.601Z,23.17
2022-12-01T10:45:40.553Z,28.75
2022-12-01T10:51:58.971Z,39.85
2022-12-01T10:55:40.879Z,32.97
2022-12-01T11:01:31.953Z,23.50
2022-12-01T11:12:11.029Z,23.42
2022-12-01T11:15:01.678Z,37.70
2022-12-01T11:17:54.045Z,72.47
2022-12-01T11:20:40.287Z,55.38
2022-12-01T11:23:21.820Z,88.45
2022-12-01T11:25:57.738Z,75.85
2022-12-01T11:28:27.548Z,93.95
2022-12-01T11:31:12.310Z,50.90
2022-12-01T11:33:56.613Z,30.98
2022-12-01T11:36:36.891Z,18.85
2022-12-01T11:39:07.255Z,18.52
2022-12-01T11:41:40.802Z,21.58
2022-12-01T11:44:49.777Z,58.28
2022-12-01T11:47:29.119Z,31.35
2022-12-01T11:50:00.589Z,147.27
2022-12-01T11:52:34.784Z,143.18
2022-12-01T11:55:14.224Z,67.75
2022-12-01T11:57:44.721Z,41.97
2022-12-01T12:00:21.025Z,25.67
2022-12-01T12:03:02.315Z,25.58
2022-12-01T12:05:57.672Z,37.08
2022-12-01T12:08:55.226Z,35.20
2022-12-01T12:11:43.196Z,24.27
2022-12-01T12:14:23.266Z,21.63
2022-12-01T12:17:19.266Z,21.48
2022-12-01T12:20:25.516Z,18.48
2022-12-01T12:23:15.535Z,59.92
2022-12-01T12:26:19.691Z,66.70
2022-12-01T12:29:10.729Z,51.97
2022-12-01T12:32:28.765Z,29.70
2022-12-01T12:35:37.705Z,27.88
2022-12-01T12:38:49.612Z,25.85
2022-12-01T12:41:18.201Z,21.83
2022-12-01T12:43:51.284Z,23.15
2022-12-01T12:46:35.702Z,22.38
2022-12-01T12:49:22.352Z,20.42
2022-12-01T12:52:46.466Z,26.25
2022-12-01T12:55:23.027Z,47.08
2022-12-01T12:57:55.720Z,19.20
2022-12-01T13:00:28.574Z,38.72
2022-12-01T13:03:04.808Z,19.98
2022-12-01T13:05:45.410Z,19.63
2022-12-01T13:09:46.010Z,26.98
2022-12-01T13:12:20.839Z,26.40
2022-12-01T13:15:01.983Z,18.85
2022-12-01T13:18:16.470Z,22.33
2022-12-01T13:20:44.578Z,41.17
2022-12-01T13:23:19.281Z,119.43
2022-12-01T13:25:50.489Z,28.75
2022-12-01T13:28:44.830Z,88.68
2022-12-01T13:31:14.509Z,30.30
2022-12-01T13:34:02.028Z,36.28
2022-12-01T13:36:46.854Z,36.45
2022-12-01T13:39:35.860Z,38.50
2022-12-01T13:42:21.732Z,58.55
2022-12-01T13:45:08.814Z,16.85
2022-12-01T13:47:53.064Z,19.33
2022-12-01T13:50:46.220Z,18.10
2022-12-01T13:53:34.298Z,18.13
2022-12-01T13:56:06.193Z,18.10
2022-12-01T13:58:33.640Z,24.75
2022-12-01T14:01:36.334Z,28.08
2022-12-01T14:04:03.783Z,23.50
2022-12-01T14:06:49.636Z,24.90
2022-12-01T14:09:41.082Z,26.15
2022-12-01T14:12:12.244Z,26.52
2022-12-01T14:14:42.404Z,23.08
2022-12-01T14:17:28.798Z,32.63
2022-12-01T14:20:05.229Z,38.35
2022-12-01T14:22:40.879Z,23.73
2022-12-01T14:25:20.494Z,23.40
2022-12-01T14:27:54.414Z,30.70
2022-12-01T14:30:40.699Z,31.92
2022-12-01T14:33:46.949Z,27.05
2022-12-01T14:36:52.225Z,28.35
2022-12-01T14:39:24.787Z,26.65
2022-12-01T14:42:07.004Z,18.15
2022-12-01T14:44:38.269Z,23.20
2022-12-01T14:47:11.955Z,26.20
2022-12-01T14:50:12.128Z,26.73
2022-12-01T14:52:46.377Z,27.63
2022-12-01T14:55:23.912Z,28.88
2022-12-01T14:58:02.126Z,24.33
2022-12-01T15:00:37.890Z,29.38
2022-12-01T15:03:16.272Z,30.27
2022-12-01T15:05:44.815Z,30.17
2022-12-01T15:08:40.872Z,27.13
2022-12-01T15:11:16.691Z,36.25
2022-12-01T15:13:55.243Z,27.05
2022-12-01T15:18:52.334Z,35.13
2022-12-01T15:21:26.415Z,37.95
2022-12-01T15:24:01.169Z,30.65
2022-12-01T15:26:52.757Z,30.30
2022-12-01T15:29:29.015Z,31.05
2022-12-01T15:32:12.354Z,35.50
2022-12-01T15:34:47.384Z,24.48
2022-12-01T15:37:21.176Z,27.83
2022-12-01T15:40:00.889Z,24.23
2022-12-01T15:42:43.873Z,24.48
2022-12-01T15:45:15.612Z,28.70
2022-12-01T15:47:46.380Z,25.52
2022-12-01T15:50:52.606Z,21.70
2022-12-01T15:53:37.505Z,25.73
2022-12-01T15:56:12.627Z,21.67
2022-12-01T15:58:55.547Z,20.48
2022-12-01T16:01:37.731Z,36.30
2022-12-01T16:04:22.008Z,35.28
2022-12-01T16:07:01.227Z,37.42
2022-12-01T16:09:57.103Z,33.25
2022-12-01T16:12:34.155Z,31.67
2022-12-01T16:15:18.991Z,31.35
2022-12-01T16:17:47.898Z,32.65
2022-12-01T16:20:20.776Z,26.58
2022-12-01T16:22:56.933Z,28.95
2022-12-01T16:25:39.986Z,35.63
2022-12-01T16:28:18.550Z,29.63
2022-12-01T16:33:19.719Z,30.00
2022-12-01T16:35:51.843Z,33.05
2022-12-01T16:38:24.668Z,41.90
2022-12-01T16:41:04.915Z,30.50
2022-12-01T16:43:32.167Z,33.40
2022-12-01T16:46:07.763Z,37.85
2022-12-01T16:48:42.152Z,33.80
2022-12-01T16:51:29.487Z,32.10
2022-12-01T16:54:00.358Z,29.23
2022-12-01T16:56:27.921Z,44.30
2022-12-01T16:58:55.207Z,46.38
2022-12-01T17:01:25.667Z,26.52
2022-12-01T17:03:53.304Z,29.30
2022-12-01T17:06:21.495Z,26.00
2022-12-01T17:08:50.333Z,34.47
2022-12-01T17:11:18.688Z,42.28
2022-12-01T17:13:46.236Z,34.15
2022-12-01T17:16:18.444Z,42.67
2022-12-01T17:18:49.991Z,43.20
2022-12-01T17:21:19.475Z,41.45
2022-12-01T17:23:50.655Z,37.03
2022-12-01T17:26:22.155Z,31.35
2022-12-01T17:28:57.605Z,36.92
2022-12-01T17:31:33.047Z,27.90
2022-12-01T17:34:13.555Z,26.60
2022-12-01T17:36:41.867Z,24.25
2022-12-01T17:39:11.412Z,22.73
2022-12-01T17:41:43.762Z,30.00
2022-12-01T17:44:16.735Z,28.05
2022-12-01T17:46:45.071Z,29.13
2022-12-01T17:49:13.832Z,34.15
2022-12-01T17:51:43.192Z,18.65
2022-12-01T17:54:10.777Z,32.67
2022-12-01T17:56:43.835Z,33.63
2022-12-01T17:59:11.737Z,26.75
2022-12-01T18:01:39.742Z,23.95
2022-12-01T18:04:07.546Z,25.80
2022-12-01T18:06:34.952Z,66.50
2022-12-01T18:09:02.121Z,30.80
2022-12-01T18:11:30.633Z,34.00
2022-12-01T18:14:05.076Z,31.52
2022-12-01T18:16:34.354Z,30.48
2022-12-01T18:19:06.057Z,27.38
2022-12-01T18:21:35.717Z,30.80
2022-12-01T18:24:05.029Z,28.48
2022-12-01T18:26:33.982Z,27.58
2022-12-01T18:29:08.190Z,30.45
2022-12-01T18:31:36.415Z,24.92
2022-12-01T18:34:07.770Z,31.63
2022-12-01T18:36:38.523Z,24.35
2022-12-01T18:39:09.973Z,25.02
2022-12-01T18:41:37.362Z,33.22
2022-12-01T18:44:08.250Z,30.73
2022-12-01T18:46:36.603Z,28.45
2022-12-01T18:49:05.059Z,33.10
2022-12-01T18:51:35.203Z,30.90
2022-12-01T18:54:04.359Z,38.28
2022-12-01T18:56:31.566Z,36.97
2022-12-01T18:59:01.106Z,28.00
2022-12-01T19:01:32.402Z,19.35
2022-12-01T19:04:00.064Z,35.28
2022-12-01T19:06:28.597Z,31.48
2022-12-01T19:08:56.694Z,25.67
2022-12-01T19:11:23.889Z,32.00
2022-12-01T19:13:51.324Z,23.25
2022-12-01T19:16:19.975Z,29.48
2022-12-01T19:18:48.007Z,27.95
2022-12-01T19:21:18.190Z,30.13
2022-12-01T19:23:46.617Z,23.50
2022-12-01T19:26:20.685Z,21.38
2022-12-01T19:28:51.342Z,26.52
2022-12-01T19:31:23.893Z,24.58
2022-12-01T19:33:53.323Z,23.58
2022-12-01T19:36:23.359Z,21.77
2022-12-01T19:38:51.120Z,24.10
2022-12-01T19:41:24.528Z,26.20
2022-12-01T19:43:52.849Z,27.65
2022-12-01T19:46:22.851Z,19.42
2022-12-01T19:48:55.537Z,28.60
2022-12-01T19:51:28.703Z,23.65
2022-12-01T19:54:00.681Z,28.15
2022-12-01T19:56:29.187Z,23.60
2022-12-01T19:58:58.510Z,26.90
2022-12-01T20:01:27.151Z,21.60
2022-12-01T20:03:58.226Z,23.83
2022-12-01T20:06:28.382Z,27.88
2022-12-01T20:08:58.663Z,25.98
2022-12-01T20:11:26.785Z,29.30
2022-12-01T20:13:54.037Z,23.30
2022-12-01T20:16:23.532Z,29.02
2022-12-01T20:18:51.752Z,28.75
2022-12-01T20:21:20.758Z,26.05
2022-12-01T20:23:50.299Z,30.35
2022-12-01T20:26:19.351Z,30.92
2022-12-01T20:28:50.557Z,27.60
2022-12-01T20:31:26.776Z,28.15
2022-12-01T20:33:55.832Z,26.02
2022-12-01T20:36:24.330Z,31.15
2022-12-01T20:38:51.974Z,26.75
2022-12-01T20:41:19.387Z,43.38
2022-12-01T20:43:46.596Z,32.80
2022-12-01T20:46:14.787Z,29.95
2022-12-01T20:48:42.757Z,28.27
2022-12-01T20:51:12.078Z,28.98
2022-12-01T20:53:38.984Z,29.35
2022-12-01T20:56:08.734Z,31.33
2022-12-01T20:58:37.979Z,29.38
2022-12-01T21:01:10.327Z,34.33
2022-12-01T21:03:39.846Z,27.30
2022-12-01T21:06:08.005Z,30.27
2022-12-01T21:08:37.744Z,29.60
2022-12-01T21:11:19.264Z,32.55
2022-12-01T21:13:47.563Z,26.70
2022-12-01T21:16:27.093Z,26.13
2022-12-01T21:19:06.685Z,30.33
2022-12-01T21:21:41.578Z,31.02
2022-12-01T21:24:08.601Z,37.58
2022-12-01T21:26:50.315Z,38.60
2022-12-01T21:29:25.363Z,28.85
2022-12-01T21:31:56.566Z,36.72
2022-12-01T21:34:25.937Z,32.88
2022-12-01T21:36:56.294Z,33.58
2022-12-01T21:39:26.498Z,29.33
2022-12-01T21:41:56.793Z,27.65
2022-12-01T21:44:32.560Z,33.03
2022-12-01T21:47:02.345Z,30.83
2022-12-01T21:49:39.556Z,21.90
2022-12-01T21:52:19.838Z,24.52
2022-12-01T21:54:47.970Z,20.17
2022-12-01T21:57:29.803Z,33.88
2022-12-01T22:00:08.729Z,24.60
2022-12-01T22:03:08.364Z,30.02
2022-12-01T22:06:14.013Z,24.48
2022-12-01T22:08:46.047Z,29.70
2022-12-01T22:11:25.549Z,28.90
2022-12-01T22:14:11.083Z,30.52
2022-12-01T22:16:42.275Z,27.48
2022-12-01T22:19:21.361Z,30.95
2022-12-01T22:22:11.537Z,29.85
2022-12-01T22:24:41.726Z,30.48
2022-12-01T22:27:28.502Z,25.05
2022-12-01T22:30:07.985Z,31.77
2022-12-01T22:32:40.668Z,24.35
2022-12-01T22:35:26.938Z,21.05
2022-12-01T22:38:05.995Z,31.00
2022-12-01T22:40:40.174Z,32.65
2022-12-01T22:43:16.529Z,31.58
2022-12-01T22:45:58.804Z,25.77
2022-12-01T22:48:43.486Z,29.92
2022-12-01T22:51:13.871Z,30.27
2022-12-01T22:53:42.593Z,29.50
2022-12-01T22:56:48.846Z,36.05
2022-12-01T22:59:28.313Z,21.33
2022-12-01T23:01:58.074Z,27.45
2022-12-01T23:04:26.967Z,28.65
2022-12-01T23:07:02.154Z,23.38
2022-12-01T23:09:39.772Z,22.58
2022-12-01T23:12:13.515Z,24.85
2022-12-01T23:17:32.968Z,26.20
2022-12-01T23:20:29.310Z,21.42
2022-12-01T23:22:59.216Z,27.38
2022-12-01T23:25:27.595Z,26.33
2022-12-01T23:27:59.756Z,24.35
2022-12-01T23:30:27.610Z,19.73
2022-12-01T23:33:11.953Z,24.42
2022-12-01T23:35:45.494Z,26.92
2022-12-01T23:38:20.874Z,19.92
2022-12-01T23:40:49.232Z,21.15
2022-12-01T23:43:18.935Z,27.98
2022-12-01T23:45:47.786Z,22.17
2022-12-01T23:48:23.199Z,25.25
2022-12-01T23:50:53.745Z,29.77
2022-12-01T23:53:29.873Z,29.52
2022-12-01T23:56:06.172Z,19.10
2022-12-01T23:58:34.622Z,27.88
